sensor_id;sensor_type;location;lat;lon;timestamp;P1;durP1;ratioP1;P2;durP2;ratioP2
73699;SDS011;62005;50.082;8.988;2024-03-29T00:02:05;0.80;;;0.13;;
73699;SDS011;62005;50.082;8.988;2024-03-29T00:04:30;1.98;;;0.10;;
73699;SDS011;62005;50.082;8.988;2024-03-29T00:06:55;2.30;;;0.10;;
73699;SDS011;62005;50.082;8.988;2024-03-29T00:09:21;2.03;;;0.28;;
73699;SDS011;62005;50.082;8.988;2024-03-29T00:11:46;1.90;;;0.43;;
73699;SDS011;62005;50.082;8.988;2024-03-29T00:14:12;0.77;;;0.32;;
73699;SDS011;62005;50.082;8.988;2024-03-29T00:16:38;2.35;;;0.35;;
73699;SDS011;62005;50.082;8.988;2024-03-29T00:19:03;3.20;;;0.65;;
73699;SDS011;62005;50.082;8.988;2024-03-29T00:21:29;3.20;;;0.20;;
73699;SDS011;62005;50.082;8.988;2024-03-29T00:23:54;1.25;;;0.20;;
73699;SDS011;62005;50.082;8.988;2024-03-29T00:26:19;1.15;;;0.22;;
73699;SDS011;62005;50.082;8.988;2024-03-29T00:28:45;1.40;;;0.30;;
73699;SDS011;62005;50.082;8.988;2024-03-29T00:31:10;0.43;;;0.22;;
73699;SDS011;62005;50.082;8.988;2024-03-29T00:33:36;0.80;;;0.22;;
73699;SDS011;62005;50.082;8.988;2024-03-29T00:36:02;1.20;;;0.20;;
73699;SDS011;62005;50.082;8.988;2024-03-29T00:38:27;0.73;;;0.20;;
73699;SDS011;62005;50.082;8.988;2024-03-29T00:40:53;1.45;;;0.20;;
73699;SDS011;62005;50.082;8.988;2024-03-29T00:43:18;1.50;;;0.20;;
73699;SDS011;62005;50.082;8.988;2024-03-29T00:45:44;1.15;;;0.13;;
73699;SDS011;62005;50.082;8.988;2024-03-29T00:48:09;1.67;;;0.82;;
73699;SDS011;62005;50.082;8.988;2024-03-29T00:50:35;2.08;;;0.20;;
73699;SDS011;62005;50.082;8.988;2024-03-29T00:55:29;2.28;;;0.22;;
73699;SDS011;62005;50.082;8.988;2024-03-29T00:57:55;1.08;;;0.70;;
73699;SDS011;62005;50.082;8.988;2024-03-29T01:00:20;2.15;;;0.30;;
73699;SDS011;62005;50.082;8.988;2024-03-29T01:02:46;2.05;;;0.30;;
73699;SDS011;62005;50.082;8.988;2024-03-29T01:05:12;1.25;;;0.22;;
73699;SDS011;62005;50.082;8.988;2024-03-29T01:07:39;1.25;;;0.20;;
73699;SDS011;62005;50.082;8.988;2024-03-29T01:10:05;0.90;;;0.15;;
73699;SDS011;62005;50.082;8.988;2024-03-29T01:12:32;1.23;;;0.43;;
73699;SDS011;62005;50.082;8.988;2024-03-29T01:14:58;1.50;;;0.47;;
73699;SDS011;62005;50.082;8.988;2024-03-29T01:17:24;1.67;;;0.13;;
73699;SDS011;62005;50.082;8.988;2024-03-29T01:19:49;1.45;;;0.25;;
73699;SDS011;62005;50.082;8.988;2024-03-29T01:22:15;1.35;;;0.25;;
73699;SDS011;62005;50.082;8.988;2024-03-29T01:24:40;3.90;;;0.40;;
73699;SDS011;62005;50.082;8.988;2024-03-29T01:27:06;2.55;;;0.55;;
73699;SDS011;62005;50.082;8.988;2024-03-29T01:29:31;1.38;;;0.30;;
73699;SDS011;62005;50.082;8.988;2024-03-29T01:31:57;3.80;;;0.35;;
73699;SDS011;62005;50.082;8.988;2024-03-29T01:34:23;1.38;;;0.20;;
73699;SDS011;62005;50.082;8.988;2024-03-29T01:36:49;1.15;;;0.30;;
73699;SDS011;62005;50.082;8.988;2024-03-29T01:39:14;2.13;;;0.30;;
73699;SDS011;62005;50.082;8.988;2024-03-29T01:41:42;1.33;;;0.15;;
73699;SDS011;62005;50.082;8.988;2024-03-29T01:44:08;1.52;;;0.55;;
73699;SDS011;62005;50.082;8.988;2024-03-29T01:46:34;0.60;;;0.20;;
73699;SDS011;62005;50.082;8.988;2024-03-29T01:49:02;1.13;;;0.28;;
73699;SDS011;62005;50.082;8.988;2024-03-29T01:51:29;1.17;;;0.30;;
73699;SDS011;62005;50.082;8.988;2024-03-29T01:53:56;2.45;;;0.15;;
73699;SDS011;62005;50.082;8.988;2024-03-29T01:56:22;1.30;;;0.32;;
73699;SDS011;62005;50.082;8.988;2024-03-29T01:58:49;2.08;;;0.20;;
73699;SDS011;62005;50.082;8.988;2024-03-29T02:01:16;1.05;;;0.22;;
73699;SDS011;62005;50.082;8.988;2024-03-29T02:03:41;0.77;;;0.52;;
73699;SDS011;62005;50.082;8.988;2024-03-29T02:06:07;1.33;;;0.22;;
73699;SDS011;62005;50.082;8.988;2024-03-29T02:08:35;1.20;;;1.10;;
73699;SDS011;62005;50.082;8.988;2024-03-29T02:11:02;1.67;;;0.30;;
73699;SDS011;62005;50.082;8.988;2024-03-29T02:13:28;0.82;;;0.32;;
73699;SDS011;62005;50.082;8.988;2024-03-29T02:15:54;1.88;;;0.22;;
73699;SDS011;62005;50.082;8.988;2024-03-29T02:18:19;1.75;;;0.20;;
73699;SDS011;62005;50.082;8.988;2024-03-29T02:20:45;1.13;;;0.20;;
73699;SDS011;62005;50.082;8.988;2024-03-29T02:23:11;1.55;;;0.50;;
73699;SDS011;62005;50.082;8.988;2024-03-29T02:25:41;2.03;;;0.40;;
73699;SDS011;62005;50.082;8.988;2024-03-29T02:28:06;4.32;;;0.32;;
73699;SDS011;62005;50.082;8.988;2024-03-29T02:30:32;1.05;;;0.03;;
73699;SDS011;62005;50.082;8.988;2024-03-29T02:33:01;2.80;;;0.10;;
73699;SDS011;62005;50.082;8.988;2024-03-29T02:35:27;1.50;;;0.57;;
73699;SDS011;62005;50.082;8.988;2024-03-29T02:37:53;1.17;;;0.35;;
73699;SDS011;62005;50.082;8.988;2024-03-29T02:40:19;1.58;;;0.25;;
73699;SDS011;62005;50.082;8.988;2024-03-29T02:42:45;1.75;;;0.30;;
73699;SDS011;62005;50.082;8.988;2024-03-29T02:45:12;0.80;;;0.15;;
73699;SDS011;62005;50.082;8.988;2024-03-29T02:47:37;1.33;;;0.22;;
73699;SDS011;62005;50.082;8.988;2024-03-29T02:50:03;1.15;;;0.13;;
73699;SDS011;62005;50.082;8.988;2024-03-29T02:52:28;1.98;;;0.50;;
73699;SDS011;62005;50.082;8.988;2024-03-29T02:54:54;0.82;;;0.20;;
73699;SDS011;62005;50.082;8.988;2024-03-29T02:57:20;5.53;;;0.68;;
73699;SDS011;62005;50.082;8.988;2024-03-29T02:59:45;2.10;;;0.50;;
73699;SDS011;62005;50.082;8.988;2024-03-29T03:02:11;3.17;;;0.32;;
73699;SDS011;62005;50.082;8.988;2024-03-29T03:04:36;1.48;;;0.32;;
73699;SDS011;62005;50.082;8.988;2024-03-29T03:07:02;1.58;;;0.22;;
73699;SDS011;62005;50.082;8.988;2024-03-29T03:09:46;1.60;;;0.30;;
73699;SDS011;62005;50.082;8.988;2024-03-29T03:12:30;1.27;;;0.15;;
73699;SDS011;62005;50.082;8.988;2024-03-29T03:14:57;0.70;;;0.30;;
73699;SDS011;62005;50.082;8.988;2024-03-29T03:17:23;1.88;;;0.47;;
73699;SDS011;62005;50.082;8.988;2024-03-29T03:19:52;1.35;;;0.43;;
73699;SDS011;62005;50.082;8.988;2024-03-29T03:22:18;2.03;;;0.82;;
73699;SDS011;62005;50.082;8.988;2024-03-29T03:24:43;1.02;;;0.20;;
73699;SDS011;62005;50.082;8.988;2024-03-29T03:27:09;1.83;;;0.20;;
73699;SDS011;62005;50.082;8.988;2024-03-29T03:29:35;1.13;;;0.22;;
73699;SDS011;62005;50.082;8.988;2024-03-29T03:32:00;1.58;;;0.30;;
73699;SDS011;62005;50.082;8.988;2024-03-29T03:34:26;2.05;;;0.30;;
73699;SDS011;62005;50.082;8.988;2024-03-29T03:36:52;1.98;;;0.30;;
73699;SDS011;62005;50.082;8.988;2024-03-29T03:39:17;1.85;;;0.25;;
73699;SDS011;62005;50.082;8.988;2024-03-29T03:41:43;0.80;;;0.13;;
73699;SDS011;62005;50.082;8.988;2024-03-29T03:44:08;1.63;;;0.28;;
73699;SDS011;62005;50.082;8.988;2024-03-29T03:46:34;0.85;;;0.50;;
73699;SDS011;62005;50.082;8.988;2024-03-29T03:48:59;1.63;;;0.40;;
73699;SDS011;62005;50.082;8.988;2024-03-29T03:51:24;0.80;;;0.80;;
73699;SDS011;62005;50.082;8.988;2024-03-29T03:53:50;1.08;;;0.35;;
73699;SDS011;62005;50.082;8.988;2024-03-29T03:56:15;1.85;;;0.45;;
73699;SDS011;62005;50.082;8.988;2024-03-29T03:58:41;1.20;;;0.30;;
73699;SDS011;62005;50.082;8.988;2024-03-29T04:01:06;1.50;;;0.30;;
73699;SDS011;62005;50.082;8.988;2024-03-29T04:03:32;0.90;;;0.22;;
73699;SDS011;62005;50.082;8.988;2024-03-29T04:05:57;1.35;;;0.32;;
73699;SDS011;62005;50.082;8.988;2024-03-29T04:08:22;1.90;;;0.35;;
73699;SDS011;62005;50.082;8.988;2024-03-29T04:10:48;1.35;;;0.30;;
73699;SDS011;62005;50.082;8.988;2024-03-29T04:13:13;1.80;;;0.32;;
73699;SDS011;62005;50.082;8.988;2024-03-29T04:15:39;2.63;;;0.13;;
73699;SDS011;62005;50.082;8.988;2024-03-29T04:18:06;1.05;;;0.20;;
73699;SDS011;62005;50.082;8.988;2024-03-29T04:20:31;2.33;;;0.38;;
73699;SDS011;62005;50.082;8.988;2024-03-29T04:22:57;1.15;;;0.40;;
73699;SDS011;62005;50.082;8.988;2024-03-29T04:25:22;1.20;;;0.30;;
73699;SDS011;62005;50.082;8.988;2024-03-29T04:27:48;1.40;;;0.20;;
73699;SDS011;62005;50.082;8.988;2024-03-29T04:30:13;2.50;;;0.20;;
73699;SDS011;62005;50.082;8.988;2024-03-29T04:32:39;1.17;;;0.22;;
73699;SDS011;62005;50.082;8.988;2024-03-29T04:35:04;1.80;;;0.32;;
73699;SDS011;62005;50.082;8.988;2024-03-29T04:37:30;0.50;;;0.22;;
73699;SDS011;62005;50.082;8.988;2024-03-29T04:39:56;1.40;;;0.35;;
73699;SDS011;62005;50.082;8.988;2024-03-29T04:42:21;1.70;;;0.13;;
73699;SDS011;62005;50.082;8.988;2024-03-29T04:44:47;1.30;;;0.13;;
73699;SDS011;62005;50.082;8.988;2024-03-29T04:47:12;0.90;;;0.20;;
73699;SDS011;62005;50.082;8.988;2024-03-29T04:49:38;1.80;;;0.30;;
73699;SDS011;62005;50.082;8.988;2024-03-29T04:52:04;0.73;;;0.32;;
73699;SDS011;62005;50.082;8.988;2024-03-29T04:54:30;2.30;;;0.13;;
73699;SDS011;62005;50.082;8.988;2024-03-29T04:56:56;3.08;;;0.50;;
73699;SDS011;62005;50.082;8.988;2024-03-29T04:59:22;0.88;;;0.40;;
73699;SDS011;62005;50.082;8.988;2024-03-29T05:01:48;0.88;;;0.32;;
73699;SDS011;62005;50.082;8.988;2024-03-29T05:04:17;0.77;;;0.20;;
73699;SDS011;62005;50.082;8.988;2024-03-29T05:06:50;1.23;;;0.20;;
73699;SDS011;62005;50.082;8.988;2024-03-29T05:09:18;3.05;;;0.22;;
73699;SDS011;62005;50.082;8.988;2024-03-29T05:11:44;1.30;;;0.50;;
73699;SDS011;62005;50.082;8.988;2024-03-29T05:14:09;0.70;;;0.30;;
73699;SDS011;62005;50.082;8.988;2024-03-29T05:16:35;1.75;;;0.80;;
73699;SDS011;62005;50.082;8.988;2024-03-29T05:19:00;1.27;;;0.40;;
73699;SDS011;62005;50.082;8.988;2024-03-29T05:21:26;0.52;;;0.22;;
73699;SDS011;62005;50.082;8.988;2024-03-29T05:23:52;1.02;;;0.30;;
73699;SDS011;62005;50.082;8.988;2024-03-29T05:26:18;2.25;;;0.10;;
73699;SDS011;62005;50.082;8.988;2024-03-29T05:28:43;1.20;;;0.73;;
73699;SDS011;62005;50.082;8.988;2024-03-29T05:31:11;3.47;;;0.40;;
73699;SDS011;62005;50.082;8.988;2024-03-29T05:33:39;2.45;;;0.82;;
73699;SDS011;62005;50.082;8.988;2024-03-29T05:36:08;1.90;;;0.13;;
73699;SDS011;62005;50.082;8.988;2024-03-29T05:38:36;1.10;;;0.22;;
73699;SDS011;62005;50.082;8.988;2024-03-29T05:41:02;1.00;;;0.28;;
73699;SDS011;62005;50.082;8.988;2024-03-29T05:43:28;1.55;;;0.15;;
73699;SDS011;62005;50.082;8.988;2024-03-29T05:45:53;3.42;;;0.20;;
73699;SDS011;62005;50.082;8.988;2024-03-29T05:48:19;0.60;;;0.32;;
73699;SDS011;62005;50.082;8.988;2024-03-29T05:50:44;1.27;;;0.45;;
73699;SDS011;62005;50.082;8.988;2024-03-29T05:53:10;1.27;;;0.22;;
73699;SDS011;62005;50.082;8.988;2024-03-29T05:55:36;0.75;;;0.25;;
73699;SDS011;62005;50.082;8.988;2024-03-29T05:58:01;0.90;;;0.45;;
73699;SDS011;62005;50.082;8.988;2024-03-29T06:00:27;2.08;;;0.47;;
73699;SDS011;62005;50.082;8.988;2024-03-29T06:02:54;1.73;;;0.15;;
73699;SDS011;62005;50.082;8.988;2024-03-29T06:05:19;1.67;;;0.20;;
73699;SDS011;62005;50.082;8.988;2024-03-29T06:07:45;0.75;;;0.22;;
73699;SDS011;62005;50.082;8.988;2024-03-29T06:10:13;0.85;;;0.32;;
73699;SDS011;62005;50.082;8.988;2024-03-29T06:12:39;1.23;;;0.60;;
73699;SDS011;62005;50.082;8.988;2024-03-29T06:15:05;1.83;;;0.43;;
73699;SDS011;62005;50.082;8.988;2024-03-29T06:17:50;0.65;;;0.20;;
73699;SDS011;62005;50.082;8.988;2024-03-29T06:20:16;1.33;;;0.17;;
73699;SDS011;62005;50.082;8.988;2024-03-29T06:22:41;2.08;;;0.32;;
73699;SDS011;62005;50.082;8.988;2024-03-29T06:25:07;1.35;;;0.47;;
73699;SDS011;62005;50.082;8.988;2024-03-29T06:27:34;1.10;;;0.50;;
73699;SDS011;62005;50.082;8.988;2024-03-29T06:30:01;1.15;;;0.30;;
73699;SDS011;62005;50.082;8.988;2024-03-29T06:34:53;0.70;;;0.27;;
73699;SDS011;62005;50.082;8.988;2024-03-29T06:37:19;1.50;;;0.30;;
73699;SDS011;62005;50.082;8.988;2024-03-29T06:39:47;2.53;;;0.30;;
73699;SDS011;62005;50.082;8.988;2024-03-29T06:42:15;4.38;;;0.10;;
73699;SDS011;62005;50.082;8.988;2024-03-29T06:44:40;1.50;;;0.52;;
73699;SDS011;62005;50.082;8.988;2024-03-29T06:47:07;0.40;;;0.25;;
73699;SDS011;62005;50.082;8.988;2024-03-29T06:49:33;1.75;;;0.30;;
73699;SDS011;62005;50.082;8.988;2024-03-29T06:51:58;1.05;;;0.17;;
73699;SDS011;62005;50.082;8.988;2024-03-29T06:54:29;1.48;;;0.30;;
73699;SDS011;62005;50.082;8.988;2024-03-29T06:56:55;0.70;;;0.22;;
73699;SDS011;62005;50.082;8.988;2024-03-29T06:59:21;1.10;;;0.32;;
73699;SDS011;62005;50.082;8.988;2024-03-29T07:01:47;0.50;;;0.40;;
73699;SDS011;62005;50.082;8.988;2024-03-29T07:04:16;0.57;;;0.17;;
73699;SDS011;62005;50.082;8.988;2024-03-29T07:06:42;1.33;;;0.20;;
73699;SDS011;62005;50.082;8.988;2024-03-29T07:09:12;1.77;;;0.20;;
73699;SDS011;62005;50.082;8.988;2024-03-29T07:11:38;1.90;;;0.43;;
73699;SDS011;62005;50.082;8.988;2024-03-29T07:14:04;1.23;;;0.50;;
73699;SDS011;62005;50.082;8.988;2024-03-29T07:16:30;0.95;;;0.25;;
73699;SDS011;62005;50.082;8.988;2024-03-29T07:18:55;2.90;;;0.65;;
73699;SDS011;62005;50.082;8.988;2024-03-29T07:21:21;1.13;;;0.25;;
73699;SDS011;62005;50.082;8.988;2024-03-29T07:23:46;1.73;;;0.32;;
73699;SDS011;62005;50.082;8.988;2024-03-29T07:26:12;0.60;;;0.13;;
73699;SDS011;62005;50.082;8.988;2024-03-29T07:28:37;2.00;;;0.60;;
73699;SDS011;62005;50.082;8.988;2024-03-29T07:31:06;1.73;;;0.40;;
73699;SDS011;62005;50.082;8.988;2024-03-29T07:33:33;1.65;;;0.43;;
73699;SDS011;62005;50.082;8.988;2024-03-29T07:35:58;1.60;;;0.40;;
73699;SDS011;62005;50.082;8.988;2024-03-29T07:38:24;1.35;;;0.45;;
73699;SDS011;62005;50.082;8.988;2024-03-29T07:40:50;2.38;;;0.45;;
73699;SDS011;62005;50.082;8.988;2024-03-29T18:53:56;7.65;;;2.92;;
73699;SDS011;62005;50.082;8.988;2024-03-29T18:57:52;9.23;;;3.05;;
73699;SDS011;62005;50.082;8.988;2024-03-29T19:00:17;6.30;;;2.08;;
73699;SDS011;62005;50.082;8.988;2024-03-29T19:02:44;8.55;;;1.95;;
73699;SDS011;62005;50.082;8.988;2024-03-29T19:05:10;6.32;;;2.45;;
73699;SDS011;62005;50.082;8.988;2024-03-29T19:07:36;8.20;;;3.53;;
73699;SDS011;62005;50.082;8.988;2024-03-29T19:20:00;3.65;;;1.35;;
73699;SDS011;62005;50.082;8.988;2024-03-29T19:34:28;2.03;;;0.65;;
73699;SDS011;62005;50.082;8.988;2024-03-29T19:37:46;1.92;;;0.68;;
73699;SDS011;62005;50.082;8.988;2024-03-29T19:44:25;2.45;;;0.88;;
73699;SDS011;62005;50.082;8.988;2024-03-29T19:54:21;3.85;;;1.50;;
73699;SDS011;62005;50.082;8.988;2024-03-29T19:56:47;1.70;;;0.70;;
73699;SDS011;62005;50.082;8.988;2024-03-29T19:59:15;2.13;;;0.68;;
73699;SDS011;62005;50.082;8.988;2024-03-29T20:01:41;1.55;;;0.60;;
73699;SDS011;62005;50.082;8.988;2024-03-29T20:04:06;1.38;;;0.63;;
73699;SDS011;62005;50.082;8.988;2024-03-29T20:06:33;1.75;;;0.60;;
73699;SDS011;62005;50.082;8.988;2024-03-29T20:09:00;1.30;;;0.50;;
73699;SDS011;62005;50.082;8.988;2024-03-29T20:11:25;1.33;;;0.52;;
73699;SDS011;62005;50.082;8.988;2024-03-29T20:13:51;1.27;;;0.38;;
73699;SDS011;62005;50.082;8.988;2024-03-29T20:16:16;1.20;;;0.50;;
73699;SDS011;62005;50.082;8.988;2024-03-29T20:18:42;1.60;;;0.80;;
73699;SDS011;62005;50.082;8.988;2024-03-29T20:21:08;1.73;;;0.20;;
73699;SDS011;62005;50.082;8.988;2024-03-29T20:23:33;2.13;;;0.45;;
73699;SDS011;62005;50.082;8.988;2024-03-29T20:25:59;3.38;;;0.65;;
73699;SDS011;62005;50.082;8.988;2024-03-29T20:28:24;1.23;;;0.20;;
73699;SDS011;62005;50.082;8.988;2024-03-29T20:30:54;0.90;;;0.60;;
73699;SDS011;62005;50.082;8.988;2024-03-29T20:33:30;1.02;;;0.30;;
73699;SDS011;62005;50.082;8.988;2024-03-29T20:35:59;1.02;;;0.30;;
73699;SDS011;62005;50.082;8.988;2024-03-29T20:38:24;1.25;;;0.40;;
73699;SDS011;62005;50.082;8.988;2024-03-29T20:40:50;1.52;;;0.60;;
73699;SDS011;62005;50.082;8.988;2024-03-29T20:43:19;1.77;;;0.50;;
73699;SDS011;62005;50.082;8.988;2024-03-29T20:45:45;1.77;;;0.57;;
73699;SDS011;62005;50.082;8.988;2024-03-29T20:48:12;1.42;;;0.47;;
73699;SDS011;62005;50.082;8.988;2024-03-29T20:50:38;0.82;;;0.30;;
73699;SDS011;62005;50.082;8.988;2024-03-29T20:53:04;20.45;;;5.25;;
73699;SDS011;62005;50.082;8.988;2024-03-29T20:55:29;25.70;;;6.55;;
73699;SDS011;62005;50.082;8.988;2024-03-29T20:57:55;12.25;;;2.55;;
73699;SDS011;62005;50.082;8.988;2024-03-29T21:00:21;6.68;;;1.55;;
73699;SDS011;62005;50.082;8.988;2024-03-29T21:02:47;4.70;;;0.98;;
73699;SDS011;62005;50.082;8.988;2024-03-29T21:05:31;1.65;;;0.60;;
73699;SDS011;62005;50.082;8.988;2024-03-29T21:08:06;2.08;;;1.05;;
73699;SDS011;62005;50.082;8.988;2024-03-29T21:11:26;4.13;;;1.05;;
73699;SDS011;62005;50.082;8.988;2024-03-29T21:13:51;5.32;;;1.15;;
73699;SDS011;62005;50.082;8.988;2024-03-29T21:16:17;2.13;;;0.90;;
73699;SDS011;62005;50.082;8.988;2024-03-29T21:18:42;3.17;;;0.80;;
73699;SDS011;62005;50.082;8.988;2024-03-29T21:21:08;2.35;;;0.88;;
73699;SDS011;62005;50.082;8.988;2024-03-29T21:23:33;1.88;;;0.73;;
73699;SDS011;62005;50.082;8.988;2024-03-29T21:26:01;2.22;;;0.43;;
73699;SDS011;62005;50.082;8.988;2024-03-29T21:28:26;1.20;;;0.55;;
73699;SDS011;62005;50.082;8.988;2024-03-29T21:30:53;0.85;;;0.43;;
73699;SDS011;62005;50.082;8.988;2024-03-29T21:39:35;1.38;;;0.52;;
73699;SDS011;62005;50.082;8.988;2024-03-29T21:42:18;2.65;;;0.82;;
73699;SDS011;62005;50.082;8.988;2024-03-29T21:44:49;3.25;;;0.60;;
73699;SDS011;62005;50.082;8.988;2024-03-29T21:47:16;1.58;;;0.52;;
73699;SDS011;62005;50.082;8.988;2024-03-29T21:49:42;3.22;;;1.00;;
73699;SDS011;62005;50.082;8.988;2024-03-29T21:52:09;4.35;;;2.00;;
73699;SDS011;62005;50.082;8.988;2024-03-29T21:54:57;5.15;;;2.47;;
73699;SDS011;62005;50.082;8.988;2024-03-29T21:57:22;4.22;;;1.85;;
73699;SDS011;62005;50.082;8.988;2024-03-29T22:03:23;5.22;;;3.10;;
73699;SDS011;62005;50.082;8.988;2024-03-29T22:09:36;4.68;;;3.03;;
73699;SDS011;62005;50.082;8.988;2024-03-29T22:13:00;5.45;;;2.20;;
73699;SDS011;62005;50.082;8.988;2024-03-29T22:33:27;4.82;;;1.58;;
73699;SDS011;62005;50.082;8.988;2024-03-29T23:04:07;7.75;;;3.17;;
73699;SDS011;62005;50.082;8.988;2024-03-29T23:10:52;5.75;;;2.80;;
73699;SDS011;62005;50.082;8.988;2024-03-29T23:23:24;4.93;;;2.47;;
73699;SDS011;62005;50.082;8.988;2024-03-29T23:25:49;4.38;;;2.50;;
73699;SDS011;62005;50.082;8.988;2024-03-29T23:28:15;4.03;;;2.10;;
73699;SDS011;62005;50.082;8.988;2024-03-29T23:30:44;5.97;;;2.55;;
73699;SDS011;62005;50.082;8.988;2024-03-29T23:33:09;4.10;;;2.03;;
73699;SDS011;62005;50.082;8.988;2024-03-29T23:35:35;4.57;;;1.85;;
73699;SDS011;62005;50.082;8.988;2024-03-29T23:38:01;2.95;;;1.88;;
73699;SDS011;62005;50.082;8.988;2024-03-29T23:40:29;2.78;;;1.52;;
73699;SDS011;62005;50.082;8.988;2024-03-29T23:42:56;5.13;;;1.92;;
73699;SDS011;62005;50.082;8.988;2024-03-29T23:45:21;3.30;;;1.00;;
73699;SDS011;62005;50.082;8.988;2024-03-29T23:47:47;3.22;;;1.42;;
73699;SDS011;62005;50.082;8.988;2024-03-29T23:50:13;2.45;;;1.00;;
73699;SDS011;62005;50.082;8.988;2024-03-29T23:52:38;2.33;;;0.80;;
73699;SDS011;62005;50.082;8.988;2024-03-29T23:55:04;2.10;;;0.65;;
73699;SDS011;62005;50.082;8.988;2024-03-29T23:57:33;1.90;;;0.85;;
73699;SDS011;62005;50.082;8.988;2024-03-29T23:59:59;1.50;;;0.73;;
